createdAt,value
2019-03-24T00:00:24.666Z,38.60
2019-03-24T00:03:00.690Z,37.43
2019-03-24T00:05:35.839Z,38.27
2019-03-24T00:08:06.227Z,37.27
2019-03-24T00:10:36.581Z,39.87
2019-03-24T00:13:09.474Z,39.83
2019-03-24T00:15:39.951Z,39.43
2019-03-24T00:18:10.808Z,38.60
2019-03-24T00:20:41.559Z,37.37
2019-03-24T00:23:14.698Z,38.50
2019-03-24T00:25:46.169Z,36.40
2019-03-24T00:28:15.910Z,37.50
2019-03-24T00:30:46.765Z,36.67
2019-03-24T00:33:31.848Z,36.70
2019-03-24T00:36:05.624Z,37.93
2019-03-24T00:38:37.686Z,38.17
2019-03-24T00:41:07.405Z,37.47
2019-03-24T00:43:37.182Z,38.93
2019-03-24T00:46:10.672Z,39.57
2019-03-24T00:48:43.386Z,40.53
2019-03-24T00:51:13.294Z,38.77
2019-03-24T00:53:43.557Z,41.27
2019-03-24T00:56:13.282Z,40.77
2019-03-24T00:58:43.087Z,40.57
2019-03-24T01:01:12.905Z,41.27
2019-03-24T01:03:43.550Z,40.37
2019-03-24T01:06:13.979Z,41.13
2019-03-24T01:08:45.708Z,40.30
2019-03-24T01:11:16.465Z,40.40
2019-03-24T01:13:46.542Z,39.87
2019-03-24T01:16:17.091Z,41.33
2019-03-24T01:18:46.847Z,39.30
2019-03-24T01:21:16.771Z,40.33
2019-03-24T01:23:46.622Z,40.03
2019-03-24T01:26:16.353Z,40.50
2019-03-24T01:28:46.201Z,40.33
2019-03-24T01:31:16.049Z,40.63
2019-03-24T01:33:47.090Z,39.57
2019-03-24T01:36:20.871Z,39.03
2019-03-24T01:39:00.391Z,38.77
2019-03-24T01:41:30.577Z,38.20
2019-03-24T01:44:02.537Z,39.17
2019-03-24T01:46:33.029Z,39.50
2019-03-24T01:49:02.817Z,39.17
2019-03-24T01:51:34.324Z,41.90
2019-03-24T01:54:05.100Z,41.10
2019-03-24T01:56:35.739Z,38.90
2019-03-24T01:59:05.504Z,41.50
2019-03-24T02:01:35.579Z,38.70
2019-03-24T02:04:06.878Z,40.13
2019-03-24T02:06:38.698Z,40.43
2019-03-24T02:09:09.253Z,41.00
2019-03-24T02:11:44.471Z,40.80
2019-03-24T02:14:14.220Z,40.20
2019-03-24T02:16:45.159Z,39.00
2019-03-24T02:19:15.258Z,39.60
2019-03-24T02:21:45.436Z,40.17
2019-03-24T02:24:15.816Z,39.23
2019-03-24T02:26:47.174Z,40.67
2019-03-24T02:29:18.179Z,38.90
2019-03-24T02:31:48.737Z,39.73
2019-03-24T02:34:18.496Z,40.00
2019-03-24T02:36:48.985Z,38.03
2019-03-24T02:39:19.566Z,39.77
2019-03-24T02:41:50.140Z,40.27
2019-03-24T02:44:25.945Z,38.23
2019-03-24T02:46:56.015Z,39.60
2019-03-24T02:49:27.247Z,39.77
2019-03-24T02:51:56.989Z,40.70
2019-03-24T02:54:31.289Z,40.57
2019-03-24T02:57:01.544Z,42.20
2019-03-24T02:59:36.932Z,44.33
2019-03-24T03:02:07.752Z,43.27
2019-03-24T03:04:38.196Z,42.60
2019-03-24T03:07:12.156Z,47.43
2019-03-24T03:09:43.045Z,44.70
2019-03-24T03:12:14.399Z,43.53
2019-03-24T03:14:44.130Z,45.50
2019-03-24T03:17:14.134Z,46.00
2019-03-24T03:19:48.990Z,45.63
2019-03-24T03:22:18.902Z,45.13
2019-03-24T03:24:49.272Z,45.47
2019-03-24T03:27:19.873Z,45.10
2019-03-24T03:29:50.065Z,44.80
2019-03-24T03:32:20.101Z,45.63
2019-03-24T03:34:49.846Z,43.60
2019-03-24T03:37:20.443Z,44.30
2019-03-24T03:39:50.894Z,43.53
2019-03-24T03:42:20.658Z,44.77
2019-03-24T03:44:51.674Z,42.67
2019-03-24T03:47:21.409Z,44.20
2019-03-24T03:49:51.741Z,44.10
2019-03-24T03:52:21.820Z,41.87
2019-03-24T03:54:53.331Z,40.70
2019-03-24T03:57:24.040Z,40.37
2019-03-24T03:59:54.472Z,41.50
2019-03-24T04:02:26.325Z,39.03
2019-03-24T04:04:56.020Z,39.97
2019-03-24T04:07:26.327Z,38.60
2019-03-24T04:09:56.419Z,39.27
2019-03-24T04:12:28.504Z,36.20
2019-03-24T04:14:58.972Z,37.47
2019-03-24T04:17:28.681Z,38.03
2019-03-24T04:20:00.945Z,38.43
2019-03-24T04:22:33.981Z,37.53
2019-03-24T04:25:03.732Z,36.83
2019-03-24T04:27:33.800Z,36.63
2019-03-24T04:30:03.843Z,35.97
2019-03-24T04:32:33.828Z,35.63
2019-03-24T04:35:05.723Z,36.97
2019-03-24T04:37:41.632Z,35.37
2019-03-24T04:40:15.203Z,35.07
2019-03-24T04:42:45.739Z,34.20
2019-03-24T04:45:16.125Z,35.73
2019-03-24T04:47:47.445Z,36.50
2019-03-24T04:50:21.617Z,34.77
2019-03-24T04:52:52.002Z,33.17
2019-03-24T04:55:24.126Z,33.97
2019-03-24T04:57:53.824Z,32.97
2019-03-24T05:00:35.782Z,34.33
2019-03-24T05:03:07.198Z,34.67
2019-03-24T05:05:37.733Z,32.00
2019-03-24T05:08:11.188Z,32.23
2019-03-24T05:10:48.595Z,32.23
2019-03-24T05:13:19.471Z,30.43
2019-03-24T05:15:52.900Z,33.23
2019-03-24T05:18:23.154Z,31.97
2019-03-24T05:20:53.530Z,33.57
2019-03-24T05:23:25.349Z,32.33
2019-03-24T05:25:55.408Z,31.37
2019-03-24T05:28:26.025Z,32.53
2019-03-24T05:30:56.947Z,31.60
2019-03-24T05:33:27.754Z,30.77
2019-03-24T05:35:58.852Z,32.57
2019-03-24T05:38:31.451Z,30.27
2019-03-24T05:41:02.024Z,32.13
2019-03-24T05:43:37.786Z,31.73
2019-03-24T05:46:09.891Z,31.17
2019-03-24T05:48:40.978Z,30.97
2019-03-24T05:51:13.841Z,33.67
2019-03-24T05:53:44.310Z,33.50
2019-03-24T05:56:14.431Z,34.33
2019-03-24T05:58:44.142Z,32.47
2019-03-24T06:01:14.872Z,34.10
2019-03-24T06:03:46.373Z,31.33
2019-03-24T06:06:16.923Z,31.30
2019-03-24T06:08:50.269Z,31.50
2019-03-24T06:11:24.436Z,33.33
2019-03-24T06:14:02.874Z,31.43
2019-03-24T06:16:34.762Z,33.50
2019-03-24T06:19:05.230Z,32.47
2019-03-24T06:21:37.517Z,30.90
2019-03-24T06:24:09.097Z,31.73
2019-03-24T06:26:39.087Z,32.30
2019-03-24T06:29:08.812Z,34.10
2019-03-24T06:31:42.923Z,33.10
2019-03-24T06:34:13.468Z,31.60
2019-03-24T06:36:45.202Z,30.93
2019-03-24T06:39:22.024Z,30.57
2019-03-24T06:41:52.028Z,30.57
2019-03-24T06:44:26.286Z,31.10
2019-03-24T06:46:57.436Z,32.97
2019-03-24T06:49:28.287Z,34.03
2019-03-24T06:52:00.447Z,36.90
2019-03-24T06:54:36.801Z,34.53
2019-03-24T06:57:08.604Z,37.03
2019-03-24T06:59:44.030Z,38.70
2019-03-24T07:02:14.853Z,38.67
2019-03-24T07:04:46.163Z,35.83
2019-03-24T07:07:17.443Z,34.83
2019-03-24T07:09:48.667Z,33.80
2019-03-24T07:12:19.954Z,33.50
2019-03-24T07:14:49.984Z,34.83
2019-03-24T07:17:20.324Z,34.67
2019-03-24T07:19:51.442Z,32.97
2019-03-24T07:22:26.820Z,32.83
2019-03-24T07:24:58.051Z,32.50
2019-03-24T07:27:30.061Z,32.00
2019-03-24T07:30:01.423Z,29.37
2019-03-24T07:32:31.824Z,31.50
2019-03-24T07:35:01.822Z,30.70
2019-03-24T07:37:31.581Z,29.67
2019-03-24T07:40:02.547Z,30.20
2019-03-24T07:42:33.354Z,30.13
2019-03-24T07:45:03.110Z,30.43
2019-03-24T07:47:35.318Z,30.60
2019-03-24T07:50:13.011Z,28.97
2019-03-24T07:52:43.907Z,29.17
2019-03-24T07:55:13.715Z,29.80
2019-03-24T07:57:44.458Z,28.87
2019-03-24T08:00:16.222Z,29.03
2019-03-24T08:02:55.728Z,28.93
2019-03-24T08:05:25.764Z,28.93
2019-03-24T08:07:55.519Z,29.73
2019-03-24T08:10:26.861Z,29.33
2019-03-24T08:12:56.740Z,29.37
2019-03-24T08:15:27.670Z,31.27
2019-03-24T08:17:57.516Z,31.20
2019-03-24T08:20:27.364Z,30.83
2019-03-24T08:22:59.251Z,30.07
2019-03-24T08:25:31.672Z,32.37
2019-03-24T08:28:02.531Z,30.93
2019-03-24T08:30:38.244Z,31.17
2019-03-24T08:33:09.337Z,28.23
2019-03-24T08:35:40.481Z,29.53
2019-03-24T08:38:10.706Z,29.47
2019-03-24T08:40:40.505Z,29.03
2019-03-24T08:43:11.215Z,30.27
2019-03-24T08:45:40.974Z,29.23
2019-03-24T08:48:12.152Z,27.53
2019-03-24T08:50:42.172Z,28.77
2019-03-24T08:53:12.632Z,27.70
2019-03-24T08:55:46.053Z,28.03
2019-03-24T08:58:16.177Z,28.13
2019-03-24T09:00:46.801Z,27.83
2019-03-24T09:03:16.533Z,28.13
2019-03-24T09:05:46.952Z,27.63
2019-03-24T09:08:17.080Z,26.63
2019-03-24T09:10:46.838Z,28.10
2019-03-24T09:13:16.597Z,28.80
2019-03-24T09:15:46.744Z,28.13
2019-03-24T09:18:16.831Z,27.10
2019-03-24T09:20:46.608Z,27.83
2019-03-24T09:23:16.366Z,26.90
2019-03-24T09:25:49.966Z,27.60
2019-03-24T09:28:20.608Z,27.90
2019-03-24T09:30:51.300Z,27.80
2019-03-24T09:33:21.049Z,27.33
2019-03-24T09:35:51.827Z,26.37
2019-03-24T09:38:22.526Z,26.37
2019-03-24T09:40:54.081Z,26.90
2019-03-24T09:43:23.824Z,26.57
2019-03-24T09:45:56.069Z,26.80
2019-03-24T09:48:25.170Z,27.37
2019-03-24T09:50:58.276Z,26.87
2019-03-24T09:53:30.109Z,26.63
2019-03-24T09:56:01.662Z,26.87
2019-03-24T09:58:32.679Z,26.30
2019-03-24T10:01:03.663Z,27.07
2019-03-24T10:03:36.564Z,25.43
2019-03-24T10:06:15.111Z,24.93
2019-03-24T10:08:47.385Z,26.97
2019-03-24T10:11:16.914Z,26.67
2019-03-24T10:13:46.657Z,24.40
2019-03-24T10:16:16.416Z,26.73
2019-03-24T10:18:46.151Z,26.67
2019-03-24T10:21:15.919Z,26.80
2019-03-24T10:23:46.055Z,25.60
2019-03-24T10:26:16.100Z,26.43
2019-03-24T10:28:46.645Z,24.70
2019-03-24T10:31:16.393Z,25.43
2019-03-24T10:33:46.157Z,25.60
2019-03-24T10:36:15.926Z,27.03
2019-03-24T10:38:45.796Z,26.87
2019-03-24T10:41:18.109Z,25.70
2019-03-24T10:43:48.629Z,25.57
2019-03-24T10:46:20.344Z,26.20
2019-03-24T10:48:50.562Z,25.37
2019-03-24T10:51:25.245Z,25.63
2019-03-24T10:53:57.617Z,25.00
2019-03-24T10:56:28.145Z,24.20
2019-03-24T10:58:57.922Z,25.27
2019-03-24T11:01:33.617Z,24.20
2019-03-24T11:04:04.534Z,24.40
2019-03-24T11:06:35.068Z,23.73
2019-03-24T11:09:06.131Z,25.40
2019-03-24T11:11:35.869Z,23.73
2019-03-24T11:14:05.642Z,22.80
2019-03-24T11:16:35.375Z,24.20
2019-03-24T11:19:05.993Z,23.07
2019-03-24T11:21:37.802Z,24.83
2019-03-24T11:24:08.495Z,22.70
2019-03-24T11:26:38.234Z,24.63
2019-03-24T11:29:09.416Z,24.67
2019-03-24T11:31:39.541Z,25.10
2019-03-24T11:34:21.737Z,27.33
2019-03-24T11:36:51.480Z,24.67
2019-03-24T11:39:21.252Z,25.23
2019-03-24T11:41:55.272Z,26.10
2019-03-24T11:44:25.849Z,25.97
2019-03-24T11:46:57.836Z,24.80
2019-03-24T11:49:27.994Z,24.03
2019-03-24T11:51:58.261Z,25.53
2019-03-24T11:54:30.473Z,23.00
2019-03-24T11:57:02.304Z,24.23
2019-03-24T11:59:32.274Z,23.17
2019-03-24T12:02:24.472Z,21.87
2019-03-24T12:04:57.931Z,20.97
2019-03-24T12:07:33.398Z,20.23
2019-03-24T12:10:10.366Z,19.87
2019-03-24T12:12:53.865Z,20.57
2019-03-24T12:15:24.617Z,20.43
2019-03-24T12:18:17.981Z,19.73
2019-03-24T12:20:49.628Z,19.50
2019-03-24T12:23:41.466Z,20.67
2019-03-24T12:26:16.323Z,18.83
2019-03-24T12:28:48.989Z,18.53
2019-03-24T12:31:21.468Z,19.13
2019-03-24T12:33:56.928Z,17.27
2019-03-24T12:36:29.025Z,18.20
2019-03-24T12:38:59.094Z,17.23
2019-03-24T12:41:28.887Z,17.83
2019-03-24T12:44:02.154Z,18.10
2019-03-24T12:47:00.114Z,19.53
2019-03-24T12:49:32.315Z,18.00
2019-03-24T12:52:05.118Z,18.13
2019-03-24T12:54:36.981Z,17.70
2019-03-24T12:57:09.266Z,17.67
2019-03-24T12:59:46.103Z,18.23
2019-03-24T13:02:16.540Z,19.33
2019-03-24T13:04:48.924Z,18.20
2019-03-24T13:07:19.359Z,17.87
2019-03-24T13:09:50.200Z,19.00
2019-03-24T13:12:20.018Z,17.83
2019-03-24T13:14:50.381Z,17.33
2019-03-24T13:17:20.722Z,17.87
2019-03-24T13:19:51.338Z,17.87
2019-03-24T13:22:26.687Z,17.13
2019-03-24T13:24:58.422Z,16.43
2019-03-24T13:27:34.617Z,15.83
2019-03-24T13:30:04.917Z,14.93
2019-03-24T13:32:35.847Z,15.63
2019-03-24T13:35:06.362Z,16.23
2019-03-24T13:37:37.637Z,16.83
2019-03-24T13:40:09.388Z,16.87
2019-03-24T13:42:59.443Z,17.27
2019-03-24T13:45:30.216Z,17.53
2019-03-24T13:48:00.733Z,16.80
2019-03-24T13:50:31.876Z,17.77
2019-03-24T13:53:03.593Z,17.10
2019-03-24T13:55:34.305Z,16.67
2019-03-24T13:58:05.235Z,14.97
2019-03-24T14:00:37.355Z,14.33
2019-03-24T14:03:27.529Z,14.97
2019-03-24T14:05:57.602Z,13.57
2019-03-24T14:08:27.636Z,14.67
2019-03-24T14:10:58.571Z,13.83
2019-03-24T14:13:28.619Z,14.10
2019-03-24T14:16:00.699Z,14.03
2019-03-24T14:18:31.003Z,13.50
2019-03-24T14:21:03.480Z,13.30
2019-03-24T14:23:34.737Z,13.00
2019-03-24T14:26:08.599Z,13.33
2019-03-24T14:28:40.396Z,12.87
2019-03-24T14:31:11.088Z,13.07
2019-03-24T14:33:44.000Z,13.07
2019-03-24T14:36:16.077Z,13.33
2019-03-24T14:38:48.021Z,13.10
2019-03-24T14:41:21.421Z,13.70
2019-03-24T14:43:58.281Z,13.40
2019-03-24T14:46:29.913Z,14.43
2019-03-24T14:49:00.644Z,14.70
2019-03-24T14:51:31.215Z,13.50
2019-03-24T14:54:01.598Z,14.20
2019-03-24T14:56:34.064Z,13.40
2019-03-24T14:59:06.351Z,13.13
2019-03-24T15:01:39.033Z,13.90
2019-03-24T15:04:10.803Z,13.73
2019-03-24T15:06:45.344Z,14.73
2019-03-24T15:09:19.231Z,14.17
2019-03-24T15:11:50.800Z,12.93
2019-03-24T15:14:20.552Z,14.03
2019-03-24T15:16:54.873Z,13.00
2019-03-24T15:19:27.205Z,14.43
2019-03-24T15:21:57.262Z,12.67
2019-03-24T15:24:32.032Z,13.77
2019-03-24T15:27:04.553Z,13.57
2019-03-24T15:29:34.637Z,13.77
2019-03-24T15:32:06.168Z,13.57
2019-03-24T15:34:36.254Z,13.00
2019-03-24T15:37:09.714Z,13.47
2019-03-24T15:39:40.399Z,13.70
2019-03-24T15:42:13.722Z,13.43
2019-03-24T15:44:44.128Z,13.80
2019-03-24T15:47:15.494Z,13.17
2019-03-24T15:49:46.946Z,13.40
2019-03-24T15:52:17.393Z,13.10
2019-03-24T15:54:47.414Z,12.87
2019-03-24T15:57:23.407Z,12.67
2019-03-24T15:59:54.549Z,11.97
2019-03-24T16:02:29.976Z,11.93
2019-03-24T16:05:00.516Z,10.83
2019-03-24T16:07:30.302Z,11.73
2019-03-24T16:10:01.369Z,11.20
2019-03-24T16:12:31.139Z,11.47
2019-03-24T16:15:01.443Z,11.57
2019-03-24T16:17:31.198Z,12.40
2019-03-24T16:20:01.303Z,11.97
2019-03-24T16:22:31.451Z,11.80
2019-03-24T16:25:01.240Z,12.27
2019-03-24T16:27:31.871Z,11.87
2019-03-24T16:30:02.110Z,12.57
2019-03-24T16:32:31.988Z,12.43
2019-03-24T16:35:20.891Z,12.30
2019-03-24T16:37:50.902Z,11.77
2019-03-24T16:40:21.887Z,11.70
2019-03-24T16:42:53.938Z,13.17
2019-03-24T16:45:24.941Z,12.43
2019-03-24T16:47:55.811Z,11.70
2019-03-24T16:50:27.939Z,12.10
2019-03-24T16:53:18.331Z,11.57
2019-03-24T16:55:50.084Z,10.90
2019-03-24T16:58:20.428Z,12.33
2019-03-24T17:01:01.154Z,12.93
2019-03-24T17:03:32.628Z,11.70
2019-03-24T17:06:03.181Z,13.40
2019-03-24T17:08:33.469Z,15.40
2019-03-24T17:11:08.020Z,13.17
2019-03-24T17:13:39.229Z,11.97
2019-03-24T17:16:09.757Z,13.10
2019-03-24T17:18:40.088Z,13.37
2019-03-24T17:21:12.998Z,13.57
2019-03-24T17:23:44.903Z,18.00
2019-03-24T17:26:14.654Z,16.43
2019-03-24T17:28:47.107Z,15.43
2019-03-24T17:31:17.112Z,14.20
2019-03-24T17:33:46.897Z,18.97
2019-03-24T17:36:17.865Z,16.80
2019-03-24T17:38:47.936Z,14.33
2019-03-24T17:41:18.405Z,13.30
2019-03-24T17:43:48.124Z,15.47
2019-03-24T17:46:19.529Z,13.73
2019-03-24T17:48:53.264Z,15.63
2019-03-24T17:51:23.425Z,12.10
2019-03-24T17:53:53.195Z,11.17
2019-03-24T17:56:31.868Z,11.63
2019-03-24T17:59:01.913Z,10.90
2019-03-24T18:01:33.344Z,11.53
2019-03-24T18:04:05.710Z,10.57
2019-03-24T18:06:35.467Z,12.73
2019-03-24T18:09:07.821Z,16.43
2019-03-24T18:11:39.315Z,11.83
2019-03-24T18:14:09.470Z,10.70
2019-03-24T18:16:39.549Z,10.37
2019-03-24T18:19:10.567Z,7.87
2019-03-24T18:21:40.333Z,8.97
2019-03-24T18:24:10.076Z,8.63
2019-03-24T18:26:39.921Z,8.93
2019-03-24T18:29:10.048Z,9.27
2019-03-24T18:31:40.162Z,9.47
2019-03-24T18:34:12.050Z,8.60
2019-03-24T18:36:43.830Z,7.93
2019-03-24T18:39:14.779Z,7.70
2019-03-24T18:41:46.705Z,6.40
2019-03-24T18:44:19.953Z,5.73
2019-03-24T18:46:50.002Z,5.20
2019-03-24T18:49:20.285Z,5.57
2019-03-24T18:51:53.030Z,4.87
2019-03-24T18:54:24.718Z,4.93
2019-03-24T18:56:54.746Z,5.10
2019-03-24T18:59:25.059Z,5.00
2019-03-24T19:01:58.155Z,4.70
2019-03-24T19:04:29.595Z,4.77
2019-03-24T19:06:59.600Z,4.63
2019-03-24T19:09:29.803Z,4.67
2019-03-24T19:12:00.176Z,4.50
2019-03-24T19:14:32.274Z,5.27
2019-03-24T19:17:05.313Z,5.17
2019-03-24T19:19:35.460Z,4.80
2019-03-24T19:22:05.978Z,4.87
2019-03-24T19:24:38.076Z,5.30
2019-03-24T19:27:11.123Z,4.60
2019-03-24T19:29:41.031Z,5.87
2019-03-24T19:32:16.615Z,5.53
2019-03-24T19:34:50.605Z,4.93
2019-03-24T19:37:23.100Z,4.90
2019-03-24T19:39:58.456Z,4.73
2019-03-24T19:42:29.011Z,4.67
2019-03-24T19:44:59.160Z,4.60
2019-03-24T19:47:29.246Z,5.00
2019-03-24T19:49:59.495Z,5.00
2019-03-24T19:52:29.960Z,4.60
2019-03-24T19:55:03.463Z,5.20
2019-03-24T19:57:33.217Z,5.07
2019-03-24T20:00:03.241Z,4.63
2019-03-24T20:02:34.780Z,5.67
2019-03-24T20:05:06.743Z,5.23
2019-03-24T20:07:47.360Z,5.80
2019-03-24T20:10:11.740Z,5.63
2019-03-24T20:12:42.762Z,5.10
2019-03-24T20:15:14.632Z,5.67
2019-03-24T20:17:54.086Z,5.23
2019-03-24T20:20:23.867Z,5.90
2019-03-24T20:22:57.192Z,6.73
2019-03-24T20:25:28.518Z,6.70
2019-03-24T20:28:03.796Z,6.50
2019-03-24T20:30:34.763Z,6.40
2019-03-24T20:33:05.164Z,6.90
2019-03-24T20:35:38.320Z,5.60
2019-03-24T20:38:10.655Z,6.00
2019-03-24T20:40:43.083Z,5.70
2019-03-24T20:43:16.223Z,5.67
2019-03-24T20:45:46.386Z,5.30
2019-03-24T20:48:16.417Z,5.37
2019-03-24T20:50:59.943Z,5.73
2019-03-24T20:53:30.708Z,5.27
2019-03-24T20:56:11.724Z,6.80
2019-03-24T20:58:42.891Z,8.47
2019-03-24T21:01:12.680Z,6.03
2019-03-24T21:04:12.676Z,5.30
2019-03-24T21:06:55.747Z,5.13
2019-03-24T21:09:29.109Z,5.47
2019-03-24T21:11:59.557Z,5.10
2019-03-24T21:14:29.293Z,5.70
2019-03-24T21:17:00.846Z,4.67
2019-03-24T21:19:33.337Z,5.13
2019-03-24T21:22:04.579Z,5.27
2019-03-24T21:24:34.399Z,4.97
2019-03-24T21:27:07.282Z,5.20
2019-03-24T21:29:37.824Z,4.93
2019-03-24T21:32:08.050Z,5.00
2019-03-24T21:34:40.135Z,5.10
2019-03-24T21:37:09.883Z,4.53
2019-03-24T21:39:40.257Z,4.73
2019-03-24T21:42:11.206Z,4.67
2019-03-24T21:44:40.949Z,5.07
2019-03-24T21:47:13.855Z,5.10
2019-03-24T21:49:43.873Z,5.73
2019-03-24T21:52:13.992Z,4.30
2019-03-24T21:54:44.439Z,4.50
2019-03-24T21:57:17.404Z,3.83
2019-03-24T21:59:47.936Z,4.40
2019-03-24T22:02:19.542Z,4.23
2019-03-24T22:04:49.373Z,5.03
2019-03-24T22:07:19.150Z,4.47
2019-03-24T22:09:50.300Z,4.47
2019-03-24T22:12:20.771Z,4.43
2019-03-24T22:14:50.514Z,4.40
2019-03-24T22:17:20.529Z,4.53
2019-03-24T22:19:52.870Z,4.27
2019-03-24T22:22:26.920Z,5.07
2019-03-24T22:24:57.888Z,4.60
2019-03-24T22:27:29.009Z,4.70
2019-03-24T22:30:11.116Z,4.80
2019-03-24T22:32:40.907Z,4.63
2019-03-24T22:35:11.735Z,4.93
2019-03-24T22:37:41.605Z,4.40
2019-03-24T22:40:12.896Z,4.67
2019-03-24T22:42:44.168Z,4.33
2019-03-24T22:45:15.121Z,4.60
2019-03-24T22:47:46.010Z,4.00
2019-03-24T22:50:15.899Z,4.10
2019-03-24T22:52:46.015Z,4.70
2019-03-24T22:55:17.492Z,4.07
2019-03-24T22:57:47.989Z,4.07
2019-03-24T23:00:37.078Z,4.00
2019-03-24T23:03:17.354Z,4.33
2019-03-24T23:05:47.503Z,4.23
2019-03-24T23:08:19.659Z,4.13
2019-03-24T23:10:50.269Z,4.07
2019-03-24T23:13:20.241Z,3.57
2019-03-24T23:15:50.419Z,3.40
2019-03-24T23:18:23.191Z,3.37
2019-03-24T23:20:54.312Z,3.50
2019-03-24T23:23:25.525Z,3.20
2019-03-24T23:25:56.296Z,3.30
2019-03-24T23:28:26.833Z,3.10
2019-03-24T23:30:57.293Z,3.43
2019-03-24T23:33:27.025Z,3.37
2019-03-24T23:35:58.108Z,3.70
2019-03-24T23:38:28.326Z,3.17
2019-03-24T23:41:03.986Z,3.40
2019-03-24T23:43:33.912Z,3.17
2019-03-24T23:46:04.320Z,2.93
2019-03-24T23:48:34.699Z,3.60
2019-03-24T23:51:06.817Z,3.20
2019-03-24T23:53:38.891Z,3.10
2019-03-24T23:56:08.637Z,3.27
2019-03-24T23:58:41.072Z,3.13
